Time;durP1;ratioP1;P1;durP2;ratioP2;P2;SDS_P1;SDS_P2;PMS_P1;PMS_P2;Temp;Humidity;BMP_temperature;BMP_pressure;BME280_temperature;BME280_humidity;BME280_pressure;Samples;Min_cycle;Max_cycle;Signal;HPM_P1;HPM_P2
2024/01/15 00:00:01;;;;;;;47.55;17.80;;;-1.90;99.90;;;;;;4834874;29;20052;-75
2024/01/15 00:02:39;;;;;;;49.03;18.00;;;-1.90;99.90;;;;;;4833745;29;20056;-75
2024/01/15 00:05:08;;;;;;;54.85;18.63;;;-1.80;99.90;;;;;;4813257;29;20077;-76
2024/01/15 00:07:36;;;;;;;40.28;15.38;;;-1.90;99.90;;;;;;4829543;29;20045;-75
2024/01/15 00:10:05;;;;;;;48.67;17.45;;;-1.80;99.90;;;;;;4820231;29;20077;-75
2024/01/15 00:12:34;;;;;;;48.15;17.25;;;-1.80;99.90;;;;;;4833981;29;20036;-76
2024/01/15 00:15:02;;;;;;;42.63;16.00;;;-1.80;99.90;;;;;;4823039;29;20780;-78
2024/01/15 00:17:31;;;;;;;38.80;15.35;;;-1.80;99.90;;;;;;4829845;29;22379;-75
2024/01/15 00:20:01;;;;;;;45.40;15.95;;;-1.80;99.90;;;;;;4831904;29;20484;-77
2024/01/15 00:22:30;;;;;;;37.80;14.35;;;-1.80;99.90;;;;;;4835018;29;20053;-76
2024/01/15 00:24:59;;;;;;;40.78;15.68;;;-1.80;99.90;;;;;;4837056;29;20548;-76
2024/01/15 00:27:27;;;;;;;46.25;17.17;;;-1.80;99.90;;;;;;4833515;29;20052;-75
2024/01/15 00:29:55;;;;;;;45.72;15.23;;;-1.80;99.90;;;;;;4801230;29;20253;-75
2024/01/15 00:32:24;;;;;;;38.90;14.60;;;-1.80;99.90;;;;;;4786820;29;20106;-75
2024/01/15 00:34:52;;;;;;;41.70;16.45;;;-1.70;99.90;;;;;;4774269;29;20842;-75
2024/01/15 00:37:22;;;;;;;46.05;17.35;;;-1.80;99.90;;;;;;4795757;29;20054;-75
2024/01/15 00:39:51;;;;;;;41.30;17.08;;;-1.70;99.90;;;;;;4785530;29;22335;-76
2024/01/15 00:42:19;;;;;;;41.17;16.55;;;-1.80;99.90;;;;;;4786013;29;20061;-76
2024/01/15 00:44:48;;;;;;;45.45;16.73;;;-1.80;99.90;;;;;;4788121;29;20064;-75
2024/01/15 00:47:16;;;;;;;44.15;17.88;;;-1.80;99.90;;;;;;4788507;29;20062;-76
2024/01/15 00:49:45;;;;;;;44.60;17.35;;;-1.70;99.90;;;;;;4764719;29;20819;-75
2024/01/15 00:52:13;;;;;;;44.90;16.20;;;-1.70;99.90;;;;;;4788996;29;20053;-75
2024/01/15 00:54:43;;;;;;;51.00;19.95;;;-1.70;99.90;;;;;;4788271;29;20112;-75
2024/01/15 00:57:12;;;;;;;45.10;18.30;;;-1.70;99.90;;;;;;4764093;29;20763;-75
2024/01/15 00:59:40;;;;;;;44.72;17.45;;;-1.70;99.90;;;;;;4770280;29;20061;-75
2024/01/15 01:02:09;;;;;;;44.38;17.33;;;-1.70;99.90;;;;;;4828227;29;20068;-74
2024/01/15 01:04:37;;;;;;;48.88;18.25;;;-1.70;99.90;;;;;;4819987;29;20053;-75
2024/01/15 01:07:06;;;;;;;47.92;18.77;;;-1.70;99.90;;;;;;4835773;29;20131;-75
2024/01/15 01:09:34;;;;;;;38.60;15.65;;;-1.70;99.90;;;;;;4816794;29;22349;-75
2024/01/15 01:12:04;;;;;;;45.38;16.25;;;-1.70;99.90;;;;;;4836891;29;20670;-78
2024/01/15 01:14:33;;;;;;;48.97;17.98;;;-1.70;99.90;;;;;;4838759;29;20056;-78
2024/01/15 01:17:01;;;;;;;45.75;17.27;;;-1.60;99.90;;;;;;4820034;29;22284;-79
2024/01/15 01:19:30;;;;;;;43.08;16.58;;;-1.60;99.90;;;;;;4832892;29;20576;-78
2024/01/15 01:21:59;;;;;;;49.13;17.23;;;-1.60;99.90;;;;;;4859837;29;20170;-78
2024/01/15 01:24:28;;;;;;;48.72;18.08;;;-1.70;99.90;;;;;;4856296;29;20059;-78
2024/01/15 01:26:56;;;;;;;47.28;17.38;;;-1.60;99.90;;;;;;4838225;29;20517;-79
2024/01/15 01:29:26;;;;;;;47.58;17.60;;;-1.60;99.90;;;;;;4825235;29;20473;-78
2024/01/15 01:31:56;;;;;;;46.40;17.58;;;-1.70;99.90;;;;;;4835228;29;20540;-78
2024/01/15 01:34:24;;;;;;;45.60;17.27;;;-1.70;99.90;;;;;;4824184;29;20084;-79
2024/01/15 01:36:53;;;;;;;42.00;17.08;;;-1.70;99.90;;;;;;4837701;29;20521;-78
2024/01/15 01:39:22;;;;;;;48.58;17.65;;;-1.70;99.90;;;;;;4844220;29;20057;-78
2024/01/15 01:41:50;;;;;;;54.47;19.15;;;-1.70;99.90;;;;;;4827371;29;20060;-79
2024/01/15 01:44:18;;;;;;;48.97;18.40;;;-1.70;99.90;;;;;;4847748;29;20191;-79
2024/01/15 01:46:48;;;;;;;49.65;17.92;;;-1.80;99.90;;;;;;4841079;29;20057;-78
2024/01/15 01:49:17;;;;;;;55.72;18.52;;;-1.80;99.90;;;;;;4828250;29;21169;-79
2024/01/15 01:51:47;;;;;;;47.35;19.50;;;-1.80;99.90;;;;;;4828166;29;20049;-78
2024/01/15 01:54:16;;;;;;;48.33;18.48;;;-1.80;99.90;;;;;;4827842;29;20277;-79
2024/01/15 01:56:44;;;;;;;52.80;18.85;;;-1.90;99.90;;;;;;4869772;29;20056;-78
2024/01/15 01:59:13;;;;;;;47.17;17.00;;;-1.90;99.90;;;;;;4871786;29;20049;-78
2024/01/15 02:01:42;;;;;;;50.95;19.35;;;-2.00;99.90;;;;;;4840440;29;20828;-78
2024/01/15 02:04:12;;;;;;;50.65;17.42;;;-1.90;99.90;;;;;;4839609;29;20053;-78
2024/01/15 02:06:42;;;;;;;44.15;18.00;;;-2.00;99.90;;;;;;4856423;29;20076;-79
2024/01/15 02:09:14;;;;;;;49.50;20.88;;;-2.00;99.90;;;;;;4841386;29;20801;-78
2024/01/15 02:11:43;;;;;;;59.50;21.63;;;-2.00;99.90;;;;;;4844029;29;20564;-78
2024/01/15 02:14:11;;;;;;;65.72;22.77;;;-2.00;99.90;;;;;;4842405;29;20059;-78
2024/01/15 02:16:40;;;;;;;55.72;20.52;;;-2.00;99.90;;;;;;4842307;29;20181;-79
2024/01/15 02:19:08;;;;;;;59.13;20.67;;;-2.10;99.90;;;;;;4830201;29;20148;-79
2024/01/15 02:21:38;;;;;;;51.15;18.77;;;-2.10;99.90;;;;;;4833307;29;20859;-79
2024/01/15 02:24:08;;;;;;;45.35;17.50;;;-2.10;99.90;;;;;;4845693;29;20068;-77
2024/01/15 02:26:38;;;;;;;50.22;17.63;;;-2.10;99.90;;;;;;4860112;29;20052;-77
2024/01/15 02:29:08;;;;;;;50.67;19.10;;;-2.10;99.90;;;;;;4854124;29;20052;-78
2024/01/15 02:31:37;;;;;;;49.97;19.35;;;-2.20;99.90;;;;;;4841077;29;20044;-77
2024/01/15 02:34:06;;;;;;;50.45;17.35;;;-2.10;99.90;;;;;;4817274;29;20058;-78
2024/01/15 02:36:35;;;;;;;50.88;18.40;;;-2.10;99.90;;;;;;4833979;29;20045;-78
2024/01/15 02:39:03;;;;;;;57.22;19.45;;;-2.20;99.90;;;;;;4820296;29;20140;-78
2024/01/15 02:41:33;;;;;;;60.72;20.05;;;-2.20;99.90;;;;;;4808613;29;20052;-78
2024/01/15 02:44:01;;;;;;;60.78;21.25;;;-2.20;99.90;;;;;;4829590;29;24747;-78
2024/01/15 02:46:30;;;;;;;52.90;21.08;;;-2.30;99.90;;;;;;4817005;29;20053;-78
2024/01/15 02:48:58;;;;;;;55.08;20.63;;;-2.30;99.90;;;;;;4820787;29;20045;-78
2024/01/15 02:51:27;;;;;;;50.47;19.45;;;-2.30;99.90;;;;;;4821182;29;20947;-78
2024/01/15 02:53:55;;;;;;;50.63;18.73;;;-2.30;99.90;;;;;;4818566;29;20667;-78
2024/01/15 02:56:23;;;;;;;50.67;18.40;;;-2.20;99.90;;;;;;4829722;29;22801;-77
2024/01/15 02:58:53;;;;;;;55.55;21.00;;;-2.30;99.90;;;;;;4829417;29;20045;-77
2024/01/15 03:01:21;;;;;;;51.20;18.60;;;-2.30;99.90;;;;;;4834211;29;20411;-78
2024/01/15 03:03:50;;;;;;;59.80;23.15;;;-2.30;99.90;;;;;;4826739;29;22345;-77
2024/01/15 03:06:19;;;;;;;64.03;23.52;;;-2.40;99.90;;;;;;4817136;29;20187;-78
2024/01/15 03:08:47;;;;;;;65.00;25.13;;;-2.50;99.90;;;;;;4827555;29;20100;-77
2024/01/15 03:11:16;;;;;;;66.32;24.42;;;-2.60;99.90;;;;;;4817925;29;20144;-77
2024/01/15 03:13:44;;;;;;;59.78;21.75;;;-2.50;99.90;;;;;;4819590;29;20091;-78
2024/01/15 03:16:14;;;;;;;68.43;22.52;;;-2.60;99.90;;;;;;4799688;29;22400;-78
2024/01/15 03:18:42;;;;;;;69.20;23.65;;;-2.50;99.90;;;;;;4804576;29;20063;-78
2024/01/15 03:21:11;;;;;;;66.57;23.23;;;-2.50;99.90;;;;;;4831203;29;20551;-78
2024/01/15 03:23:39;;;;;;;57.47;20.02;;;-2.50;99.90;;;;;;4819712;29;20058;-78
2024/01/15 03:26:07;;;;;;;59.03;21.42;;;-2.60;99.90;;;;;;4821954;29;20442;-77
2024/01/15 03:28:35;;;;;;;61.47;23.45;;;-2.60;99.90;;;;;;4814269;29;20064;-78
2024/01/15 03:31:04;;;;;;;64.15;22.80;;;-2.60;99.90;;;;;;4816090;29;20183;-78
2024/01/15 03:33:34;;;;;;;64.47;24.80;;;-2.60;99.90;;;;;;4823569;29;20064;-77
2024/01/15 03:36:02;;;;;;;58.60;19.75;;;-2.60;99.90;;;;;;4835590;29;20195;-75
2024/01/15 03:38:31;;;;;;;65.50;21.52;;;-2.60;99.90;;;;;;4829949;29;20151;-76
2024/01/15 03:40:59;;;;;;;64.03;22.77;;;-2.70;99.90;;;;;;4835521;29;20053;-74
2024/01/15 03:43:28;;;;;;;60.15;21.30;;;-2.80;99.90;;;;;;4851579;29;20398;-75
2024/01/15 03:45:57;;;;;;;59.45;20.98;;;-2.70;99.90;;;;;;4833583;29;20765;-75
2024/01/15 03:48:25;;;;;;;61.17;22.45;;;-2.70;99.90;;;;;;4849410;29;20497;-76
2024/01/15 03:50:55;;;;;;;63.08;22.45;;;-2.70;99.90;;;;;;4822052;29;20064;-76
2024/01/15 03:53:24;;;;;;;65.47;22.75;;;-2.70;99.90;;;;;;4837660;29;20077;-76
2024/01/15 03:55:52;;;;;;;57.92;22.08;;;-2.70;99.90;;;;;;4845845;29;20182;-75
2024/01/15 03:58:21;;;;;;;65.13;24.92;;;-2.70;99.90;;;;;;4838061;29;20151;-76
2024/01/15 04:00:49;;;;;;;60.20;20.33;;;-2.80;99.90;;;;;;4836814;29;20049;-77
2024/01/15 04:03:18;;;;;;;69.50;24.02;;;-2.90;99.90;;;;;;4822095;29;22827;-76
2024/01/15 04:05:46;;;;;;;67.05;23.10;;;-2.80;99.90;;;;;;4860862;29;20117;-75
2024/01/15 04:08:16;;;;;;;64.75;23.48;;;-2.90;99.90;;;;;;4839417;29;20821;-74
2024/01/15 04:10:44;;;;;;;64.35;23.00;;;-2.90;99.90;;;;;;4848998;29;20135;-76
2024/01/15 04:13:13;;;;;;;65.72;23.63;;;-2.90;99.90;;;;;;4838553;29;20181;-75
2024/01/15 04:15:42;;;;;;;75.68;29.15;;;-2.90;99.90;;;;;;4840934;29;20143;-79
2024/01/15 04:18:10;;;;;;;71.28;26.67;;;-2.90;99.90;;;;;;4831397;29;20086;-76
2024/01/15 04:20:39;;;;;;;75.57;29.00;;;-2.80;99.90;;;;;;4834265;29;20799;-77
2024/01/15 04:23:07;;;;;;;82.25;28.83;;;-2.90;99.90;;;;;;4840943;29;20049;-75
2024/01/15 04:25:37;;;;;;;70.22;24.63;;;-2.90;99.90;;;;;;4839332;29;20068;-76
2024/01/15 04:28:06;;;;;;;79.25;26.45;;;-2.90;99.90;;;;;;4835883;29;20096;-77
2024/01/15 04:30:34;;;;;;;66.65;24.42;;;-3.00;99.90;;;;;;4826179;29;20773;-75
2024/01/15 04:33:03;;;;;;;82.65;26.98;;;-3.00;99.90;;;;;;4838758;29;20187;-76
2024/01/15 04:35:31;;;;;;;70.60;24.73;;;-3.00;99.90;;;;;;4820212;29;20184;-75
2024/01/15 04:38:00;;;;;;;71.47;24.30;;;-3.10;99.90;;;;;;4829689;29;20095;-75
2024/01/15 04:40:28;;;;;;;69.25;24.55;;;-3.00;99.90;;;;;;4840782;29;20060;-76
2024/01/15 04:42:58;;;;;;;70.22;23.80;;;-3.00;99.90;;;;;;4840593;29;20175;-76
2024/01/15 04:45:28;;;;;;;67.00;23.55;;;-3.00;99.90;;;;;;4838874;29;20048;-76
2024/01/15 04:47:57;;;;;;;71.88;23.65;;;-3.00;99.90;;;;;;4826370;29;20064;-77
2024/01/15 04:50:26;;;;;;;76.45;26.15;;;-3.00;99.90;;;;;;4840089;29;20064;-77
2024/01/15 04:52:54;;;;;;;71.10;24.50;;;-3.00;99.90;;;;;;4834692;29;20077;-76
2024/01/15 04:55:23;;;;;;;67.40;24.50;;;-3.00;99.90;;;;;;4839966;29;22315;-76
2024/01/15 04:57:51;;;;;;;73.30;27.13;;;-3.10;99.90;;;;;;4839236;29;20061;-75
2024/01/15 05:00:21;;;;;;;78.32;26.63;;;-3.10;99.90;;;;;;4845816;29;20059;-77
2024/01/15 05:02:49;;;;;;;72.10;26.33;;;-3.10;99.90;;;;;;4830063;29;20065;-76
2024/01/15 05:05:18;;;;;;;70.43;24.13;;;-3.10;99.90;;;;;;4848133;29;20051;-76
2024/01/15 05:07:46;;;;;;;70.50;23.50;;;-3.10;99.90;;;;;;4823296;29;20115;-79
2024/01/15 05:10:15;;;;;;;71.43;26.38;;;-3.10;99.90;;;;;;4842383;29;20077;-76
2024/01/15 05:12:43;;;;;;;59.60;24.30;;;-3.20;99.90;;;;;;4824146;29;20421;-76
2024/01/15 05:15:12;;;;;;;81.15;28.35;;;-3.20;99.90;;;;;;4829434;29;20049;-76
2024/01/15 05:17:42;;;;;;;67.57;26.10;;;-3.20;99.90;;;;;;4847717;29;20531;-76
2024/01/15 05:20:11;;;;;;;75.10;25.95;;;-3.30;99.90;;;;;;4836171;29;20071;-76
2024/01/15 05:22:40;;;;;;;63.00;23.35;;;-3.20;99.90;;;;;;4839448;29;20068;-76
2024/01/15 05:25:09;;;;;;;67.50;25.20;;;-3.20;99.90;;;;;;4821040;29;20048;-78
2024/01/15 05:27:37;;;;;;;78.65;27.88;;;-3.20;99.90;;;;;;4840507;29;20521;-76
2024/01/15 05:30:06;;;;;;;84.38;29.75;;;-3.30;99.90;;;;;;4837104;29;20110;-78
2024/01/15 05:32:35;;;;;;;62.90;24.98;;;-3.30;99.90;;;;;;4827899;29;20513;-75
2024/01/15 05:35:06;;;;;;;72.88;25.20;;;-3.30;99.90;;;;;;4814778;29;21325;-76
2024/01/15 05:37:34;;;;;;;80.40;29.92;;;-3.30;99.90;;;;;;4812555;29;20141;-76
2024/01/15 05:40:05;;;;;;;78.07;28.30;;;-3.30;99.90;;;;;;4818188;29;20655;-76
2024/01/15 05:42:33;;;;;;;80.57;27.70;;;-3.30;99.90;;;;;;4820137;29;20065;-77
2024/01/15 05:45:04;;;;;;;85.70;30.75;;;-3.30;99.90;;;;;;4808190;29;20069;-76
2024/01/15 05:47:33;;;;;;;81.07;30.05;;;-2.70;99.90;;;;;;4828352;29;20049;-75
2024/01/15 05:50:02;;;;;;;93.90;33.85;;;-3.40;99.90;;;;;;4817733;29;20510;-75
2024/01/15 05:52:32;;;;;;;79.28;29.95;;;-3.30;99.90;;;;;;4833366;29;20108;-76
2024/01/15 05:55:01;;;;;;;90.93;31.30;;;-3.30;99.90;;;;;;4827401;29;20049;-79
2024/01/15 05:57:29;;;;;;;88.75;30.63;;;-3.40;99.90;;;;;;4840301;29;20151;-79
2024/01/15 05:59:59;;;;;;;83.15;27.58;;;-2.90;99.90;;;;;;4851742;29;22135;-79
2024/01/15 06:02:28;;;;;;;83.20;31.92;;;-2.90;99.90;;;;;;4841222;29;20057;-79
2024/01/15 06:04:57;;;;;;;138.93;46.50;;;-3.90;99.90;;;;;;4838761;29;20043;-79
2024/01/15 06:07:26;;;;;;;127.35;42.13;;;-2.20;99.90;;;;;;4824835;29;20683;-79
2024/01/15 06:09:57;;;;;;;128.48;44.58;;;-2.00;99.90;;;;;;4840352;29;20520;-78
2024/01/15 06:12:27;;;;;;;115.60;37.95;;;-3.40;99.90;;;;;;4845620;29;20334;-79
2024/01/15 06:14:56;;;;;;;119.43;40.50;;;-2.90;99.90;;;;;;4838742;29;20057;-78
2024/01/15 06:17:25;;;;;;;127.40;43.03;;;-3.70;99.90;;;;;;4828029;29;20049;-79
2024/01/15 06:19:54;;;;;;;99.82;35.78;;;-2.90;99.90;;;;;;4822209;29;20049;-79
2024/01/15 06:22:23;;;;;;;93.28;33.08;;;-1.60;99.90;;;;;;4836981;29;20114;-79
2024/01/15 06:24:52;;;;;;;100.05;36.85;;;-3.80;99.90;;;;;;4828868;29;20199;-79
2024/01/15 06:27:23;;;;;;;103.38;35.38;;;-3.40;99.90;;;;;;4838439;29;20045;-80
2024/01/15 06:29:52;;;;;;;109.75;35.22;;;-3.30;99.90;;;;;;4856608;29;20109;-78
2024/01/15 06:32:20;;;;;;;99.05;34.90;;;-4.40;99.90;;;;;;4842360;29;20137;-78
2024/01/15 06:34:49;;;;;;;100.25;35.08;;;-2.40;99.90;;;;;;4849292;29;20077;-78
2024/01/15 06:37:20;;;;;;;92.35;33.05;;;-2.90;99.90;;;;;;4827865;29;20076;-78
2024/01/15 06:39:48;;;;;;;92.10;32.67;;;-3.30;99.90;;;;;;4828805;29;21206;-78
2024/01/15 06:42:18;;;;;;;81.55;30.52;;;-2.40;99.90;;;;;;4845118;29;20041;-79
2024/01/15 06:44:48;;;;;;;89.85;32.00;;;-2.00;99.90;;;;;;4855536;29;22085;-79
2024/01/15 06:47:17;;;;;;;85.97;30.23;;;-2.10;99.90;;;;;;4869769;29;20057;-79
2024/01/15 06:49:46;;;;;;;78.93;26.98;;;-2.50;99.90;;;;;;4847035;29;20040;-79
2024/01/15 06:52:15;;;;;;;83.78;27.30;;;-3.00;99.90;;;;;;4840456;29;22057;-79
2024/01/15 06:54:44;;;;;;;71.93;25.73;;;-3.00;99.90;;;;;;4866365;29;20163;-79
2024/01/15 06:57:14;;;;;;;70.43;24.08;;;-3.20;99.90;;;;;;4850734;29;20049;-78
2024/01/15 06:59:43;;;;;;;80.75;29.38;;;-3.10;99.90;;;;;;4863077;29;20421;-79
2024/01/15 07:02:16;;;;;;;56.22;23.90;;;-2.90;99.90;;;;;;4852721;29;20048;-78
2024/01/15 07:04:45;;;;;;;72.18;28.23;;;-2.80;99.90;;;;;;4842167;29;20199;-76
2024/01/15 07:07:13;;;;;;;59.53;24.10;;;-3.00;99.90;;;;;;4828961;29;20054;-78
2024/01/15 07:09:42;;;;;;;69.45;24.23;;;-3.00;99.90;;;;;;4828623;29;20152;-77
2024/01/15 07:12:10;;;;;;;67.07;24.88;;;-3.00;99.90;;;;;;4834194;29;20048;-77
2024/01/15 07:14:39;;;;;;;67.93;25.90;;;-2.30;99.90;;;;;;4841700;29;20053;-76
2024/01/15 07:17:07;;;;;;;63.70;25.05;;;-2.80;99.90;;;;;;4818166;29;20148;-76
2024/01/15 07:19:37;;;;;;;66.03;22.67;;;-2.80;99.90;;;;;;4814047;29;20276;-76
2024/01/15 07:22:06;;;;;;;78.60;24.00;;;-2.70;99.90;;;;;;4805208;29;20585;-78
2024/01/15 07:24:35;;;;;;;79.90;28.05;;;-2.70;99.90;;;;;;4826383;29;20057;-76
2024/01/15 07:27:04;;;;;;;74.47;26.77;;;-2.60;99.90;;;;;;4822405;29;20064;-76
2024/01/15 07:29:35;;;;;;;76.05;26.80;;;-2.60;99.90;;;;;;4829491;29;20049;-76
2024/01/15 07:32:07;;;;;;;67.60;25.42;;;-2.50;99.90;;;;;;4800240;29;20081;-77
2024/01/15 07:34:37;;;;;;;67.65;25.08;;;-2.60;99.90;;;;;;4828820;29;20064;-76
2024/01/15 07:37:06;;;;;;;63.72;24.85;;;-2.50;99.90;;;;;;4799366;29;20644;-76
2024/01/15 07:39:35;;;;;;;41.58;18.98;;;-2.60;99.90;;;;;;4823061;29;20053;-77
2024/01/15 07:42:03;;;;;;;77.95;28.75;;;-2.60;99.90;;;;;;4816191;29;20058;-76
2024/01/15 07:44:32;;;;;;;69.53;24.83;;;-2.50;99.90;;;;;;4815681;29;20085;-75
2024/01/15 07:47:00;;;;;;;68.53;24.40;;;-2.50;99.90;;;;;;4805680;29;20173;-76
2024/01/15 07:49:28;;;;;;;67.88;22.92;;;-2.60;99.90;;;;;;4797964;29;20104;-76
2024/01/15 07:51:59;;;;;;;74.47;23.90;;;-2.50;99.90;;;;;;4800766;29;20057;-77
2024/01/15 07:54:27;;;;;;;65.70;24.95;;;-2.50;99.90;;;;;;4814347;29;20067;-76
2024/01/15 07:56:57;;;;;;;135.45;43.58;;;-2.50;99.90;;;;;;4814123;29;22199;-79
2024/01/15 07:59:25;;;;;;;148.77;48.70;;;-2.50;99.90;;;;;;4815249;29;20068;-77
2024/01/15 08:01:54;;;;;;;144.32;47.30;;;-2.50;99.90;;;;;;4818920;29;20053;-77
2024/01/15 08:04:23;;;;;;;118.47;40.03;;;-2.50;99.90;;;;;;4824163;29;20069;-79
2024/01/15 08:06:52;;;;;;;79.18;29.65;;;-2.40;99.90;;;;;;4822451;29;20194;-79
2024/01/15 08:09:22;;;;;;;92.90;31.58;;;-2.40;99.90;;;;;;4820977;29;20063;-77
2024/01/15 08:11:50;;;;;;;97.53;35.03;;;-2.30;99.90;;;;;;4830869;29;20052;-79
2024/01/15 08:14:19;;;;;;;71.20;26.88;;;-2.20;99.90;;;;;;4825521;29;20227;-76
2024/01/15 08:16:47;;;;;;;70.18;26.00;;;-1.60;99.90;;;;;;4844985;29;22412;-78
2024/01/15 08:19:16;;;;;;;65.90;25.58;;;-1.80;99.90;;;;;;4848127;29;20041;-78
2024/01/15 08:21:45;;;;;;;78.75;29.33;;;-1.40;99.90;;;;;;4840131;29;20044;-79
2024/01/15 08:24:16;;;;;;;71.65;26.98;;;-0.90;99.90;;;;;;4852726;29;20062;-78
2024/01/15 08:29:46;;;;;;;75.30;26.73;;;-1.10;99.90;;;;;;5211007;23;20091;-77
2024/01/15 08:32:15;;;;;;;78.10;27.10;;;0.00;99.90;;;;;;4868787;29;20039;-77
2024/01/15 08:34:47;;;;;;;82.28;26.38;;;0.10;99.90;;;;;;4853406;29;20056;-77
2024/01/15 08:37:17;;;;;;;70.07;25.58;;;-1.20;99.90;;;;;;4851860;29;20186;-75
2024/01/15 08:39:46;;;;;;;106.35;40.08;;;-0.50;99.90;;;;;;4823473;29;20281;-76
2024/01/15 08:42:18;;;;;;;106.85;37.75;;;-1.20;99.90;;;;;;4826633;29;20053;-76
2024/01/15 08:44:48;;;;;;;100.82;35.58;;;-1.00;99.90;;;;;;4834041;29;20053;-76
2024/01/15 08:47:16;;;;;;;83.82;28.48;;;-0.80;99.90;;;;;;4824767;29;20053;-76
2024/01/15 08:49:46;;;;;;;86.80;30.13;;;-0.70;99.90;;;;;;4823265;29;20576;-77
2024/01/15 08:52:15;;;;;;;90.47;31.38;;;-0.50;99.90;;;;;;4823643;29;20067;-77
2024/01/15 08:54:45;;;;;;;96.75;33.60;;;-0.40;99.90;;;;;;4827772;29;20064;-77
2024/01/15 08:57:13;;;;;;;87.82;28.40;;;-0.20;99.90;;;;;;4852478;29;20039;-79
2024/01/15 08:59:42;;;;;;;71.88;26.27;;;-0.20;99.90;;;;;;4872849;29;20030;-78
2024/01/15 09:02:12;;;;;;;67.88;24.35;;;-0.20;99.90;;;;;;4870053;29;20035;-78
2024/01/15 09:04:43;;;;;;;96.40;35.33;;;-0.20;99.90;;;;;;4860849;29;20052;-78
2024/01/15 09:07:12;;;;;;;95.32;33.05;;;0.00;99.90;;;;;;4865481;29;20052;-78
2024/01/15 09:09:41;;;;;;;97.93;35.78;;;0.00;99.90;;;;;;4858581;29;20032;-79
2024/01/15 09:12:10;;;;;;;80.60;30.00;;;0.10;99.90;;;;;;4850435;29;20068;-80
2024/01/15 09:14:39;;;;;;;80.07;29.33;;;0.20;99.90;;;;;;4877843;29;20041;-80
2024/01/15 09:17:09;;;;;;;88.97;32.72;;;0.40;99.90;;;;;;4865837;29;20063;-79
2024/01/15 09:19:40;;;;;;;86.10;32.22;;;0.40;99.90;;;;;;4870879;29;20048;-80
2024/01/15 09:22:09;;;;;;;76.95;31.35;;;0.50;99.90;;;;;;4885050;29;20037;-80
2024/01/15 09:24:41;;;;;;;66.07;25.98;;;1.10;99.90;;;;;;4860690;29;21251;-80
2024/01/15 09:27:10;;;;;;;65.65;25.70;;;0.60;99.90;;;;;;4854413;29;20724;-76
2024/01/15 09:29:41;;;;;;;82.93;32.75;;;0.60;99.90;;;;;;4853931;29;20049;-80
2024/01/15 09:32:10;;;;;;;69.90;29.52;;;0.70;99.90;;;;;;4843333;29;20765;-78
2024/01/15 09:34:41;;;;;;;64.18;26.65;;;0.70;99.90;;;;;;4860356;29;20073;-79
2024/01/15 09:37:10;;;;;;;58.58;20.65;;;0.80;99.90;;;;;;4844769;29;20068;-78
2024/01/15 09:39:51;;;;;;;57.15;22.00;;;1.10;99.90;;;;;;4845142;29;20152;-78
2024/01/15 09:42:21;;;;;;;53.35;20.35;;;0.90;99.90;;;;;;4832176;29;20041;-78
2024/01/15 09:44:50;;;;;;;54.65;21.08;;;2.10;99.90;;;;;;4858415;29;20057;-78
2024/01/15 09:47:20;;;;;;;58.72;19.92;;;1.00;99.90;;;;;;4865744;29;20048;-78
2024/01/15 09:49:51;;;;;;;59.08;22.67;;;1.10;99.90;;;;;;4837715;29;20076;-78
2024/01/15 09:52:20;;;;;;;79.65;28.80;;;1.10;99.90;;;;;;4827791;29;22102;-79
2024/01/15 09:54:50;;;;;;;57.15;22.02;;;1.20;99.90;;;;;;4842669;29;20085;-78
2024/01/15 09:57:19;;;;;;;52.20;21.63;;;3.10;99.90;;;;;;4848767;29;20066;-78
2024/01/15 09:59:49;;;;;;;54.33;20.80;;;1.50;99.90;;;;;;4834288;29;20049;-78
2024/01/15 10:02:20;;;;;;;60.17;25.40;;;1.50;99.90;;;;;;4846940;29;20037;-78
2024/01/15 10:04:52;;;;;;;36.30;15.32;;;1.70;99.90;;;;;;4841051;29;20124;-79
2024/01/15 10:07:22;;;;;;;30.98;11.77;;;2.00;99.90;;;;;;4844295;29;20075;-77
2024/01/15 10:09:51;;;;;;;35.75;16.33;;;1.80;99.90;;;;;;4855139;29;20053;-78
2024/01/15 10:12:21;;;;;;;36.40;14.57;;;2.00;99.90;;;;;;4857940;29;20057;-78
2024/01/15 10:14:51;;;;;;;31.45;14.82;;;2.00;99.90;;;;;;4839254;29;20051;-78
2024/01/15 10:17:20;;;;;;;34.03;15.00;;;2.10;99.90;;;;;;4850867;29;20041;-79
2024/01/15 10:19:51;;;;;;;38.65;17.85;;;2.10;99.90;;;;;;4853846;29;20049;-78
2024/01/15 10:22:20;;;;;;;34.35;12.63;;;2.10;99.90;;;;;;4864883;29;20097;-79
2024/01/15 10:24:49;;;;;;;27.10;12.05;;;2.30;99.90;;;;;;4862483;29;20045;-78
2024/01/15 10:27:18;;;;;;;35.10;13.90;;;2.40;99.90;;;;;;4854249;29;20064;-79
2024/01/15 10:29:48;;;;;;;33.83;11.20;;;2.30;99.90;;;;;;4857573;29;20108;-80
2024/01/15 10:32:17;;;;;;;39.28;16.85;;;2.60;99.90;;;;;;4854023;29;20045;-78
2024/01/15 10:34:46;;;;;;;20.85;8.30;;;2.10;99.90;;;;;;4860485;29;20040;-78
2024/01/15 10:37:17;;;;;;;18.80;7.63;;;2.60;99.90;;;;;;4865523;29;20080;-78
2024/01/15 10:39:47;;;;;;;26.30;10.15;;;2.70;99.90;;;;;;4878520;29;20060;-79
2024/01/15 10:42:18;;;;;;;22.05;10.13;;;2.90;99.90;;;;;;4863075;29;20164;-78
2024/01/15 10:44:47;;;;;;;18.15;6.30;;;3.00;99.90;;;;;;4869589;29;20049;-79
2024/01/15 10:47:16;;;;;;;31.33;11.23;;;2.90;99.30;;;;;;4861348;29;20162;-78
2024/01/15 10:49:46;;;;;;;17.98;7.20;;;3.00;99.20;;;;;;4874029;29;20056;-79
2024/01/15 10:52:16;;;;;;;15.90;5.80;;;3.10;98.50;;;;;;4866086;29;20184;-79
2024/01/15 10:54:49;;;;;;;14.15;5.47;;;3.20;98.90;;;;;;4882977;29;20045;-79
2024/01/15 10:57:19;;;;;;;11.90;5.43;;;3.20;97.00;;;;;;4885365;29;20053;-79
2024/01/15 10:59:48;;;;;;;17.13;6.75;;;3.20;96.50;;;;;;4855288;29;20543;-78
2024/01/15 11:02:17;;;;;;;11.95;6.00;;;1.70;96.80;;;;;;4855063;29;20148;-79
2024/01/15 11:04:47;;;;;;;19.05;7.93;;;2.30;95.70;;;;;;4885083;29;20048;-78
2024/01/15 11:07:18;;;;;;;18.70;6.88;;;2.80;95.40;;;;;;4856890;29;20082;-79
2024/01/15 11:09:47;;;;;;;11.27;4.70;;;3.60;95.30;;;;;;4853154;29;20166;-79
2024/01/15 11:12:19;;;;;;;17.35;5.70;;;3.60;94.70;;;;;;4874898;29;20264;-79
2024/01/15 11:14:49;;;;;;;22.00;7.35;;;3.60;95.10;;;;;;4875068;29;20057;-78
2024/01/15 11:17:19;;;;;;;17.10;6.78;;;3.30;94.50;;;;;;4859631;29;20045;-79
2024/01/15 11:19:51;;;;;;;17.25;6.88;;;3.70;94.30;;;;;;4863182;29;20128;-79
2024/01/15 11:22:53;;;;;;;12.15;4.68;;;3.70;94.40;;;;;;4858416;29;20173;-78
2024/01/15 11:25:24;;;;;;;11.18;5.13;;;3.90;93.30;;;;;;4852861;29;20060;-78
2024/01/15 11:27:56;;;;;;;15.25;5.35;;;4.00;93.00;;;;;;4869828;29;20063;-80
2024/01/15 11:30:27;;;;;;;11.23;3.80;;;4.30;93.40;;;;;;4861857;29;20905;-79
2024/01/15 11:32:57;;;;;;;13.07;5.68;;;4.20;92.70;;;;;;4871993;29;20033;-78
2024/01/15 11:35:49;;;;;;;9.98;4.88;;;4.50;93.00;;;;;;4855655;29;20045;-78
2024/01/15 11:38:30;;;;;;;9.23;4.25;;;4.20;92.60;;;;;;4874315;29;20108;-77
2024/01/15 11:41:01;;;;;;;11.75;3.70;;;4.30;92.30;;;;;;4866086;29;20048;-79
2024/01/15 11:43:33;;;;;;;12.52;4.68;;;4.40;92.70;;;;;;4869909;29;20096;-78
2024/01/15 11:46:04;;;;;;;11.13;3.88;;;4.30;92.50;;;;;;4868772;29;20061;-80
2024/01/15 11:48:44;;;;;;;9.10;4.03;;;4.10;92.30;;;;;;4868748;29;20048;-78
2024/01/15 11:51:13;;;;;;;9.10;3.03;;;4.30;91.90;;;;;;4848932;29;20174;-79
2024/01/15 11:53:48;;;;;;;9.38;3.60;;;3.30;91.70;;;;;;4852178;29;20053;-78
2024/01/15 11:56:18;;;;;;;10.48;3.75;;;4.40;91.70;;;;;;4859103;29;20056;-79
2024/01/15 11:58:47;;;;;;;8.13;3.83;;;4.40;91.80;;;;;;4864475;29;20059;-80
2024/01/15 12:01:17;;;;;;;7.32;3.00;;;4.30;91.60;;;;;;4845979;29;20056;-78
2024/01/15 12:03:48;;;;;;;8.90;4.07;;;4.40;91.30;;;;;;4862542;29;20759;-78
2024/01/15 12:06:17;;;;;;;9.35;3.85;;;4.50;91.10;;;;;;4862021;29;21593;-79
2024/01/15 12:08:47;;;;;;;14.55;4.25;;;5.10;91.40;;;;;;4876395;29;20041;-79
2024/01/15 12:11:20;;;;;;;13.80;4.57;;;4.50;91.50;;;;;;4885458;29;20093;-80
2024/01/15 12:13:49;;;;;;;8.13;2.97;;;4.40;91.40;;;;;;4849656;29;20052;-79
2024/01/15 12:16:18;;;;;;;12.38;4.30;;;4.60;91.20;;;;;;4863698;29;20100;-79
2024/01/15 12:18:46;;;;;;;10.15;4.53;;;4.70;91.30;;;;;;4848137;29;20053;-80
2024/01/15 12:21:15;;;;;;;12.10;4.63;;;4.40;91.50;;;;;;4865645;29;20125;-79
2024/01/15 12:23:48;;;;;;;16.27;7.25;;;4.40;91.50;;;;;;4865797;29;20045;-78
2024/01/15 12:26:19;;;;;;;14.60;6.88;;;4.40;91.50;;;;;;4861604;29;20048;-79
2024/01/15 12:28:47;;;;;;;11.30;5.03;;;4.50;91.40;;;;;;4856710;29;20065;-80
2024/01/15 12:31:16;;;;;;;15.27;5.55;;;3.50;91.50;;;;;;4843984;29;20061;-80
2024/01/15 12:33:46;;;;;;;11.68;4.93;;;4.50;91.00;;;;;;4847639;29;20051;-80
2024/01/15 12:36:15;;;;;;;11.68;4.28;;;5.00;91.40;;;;;;4847651;29;20049;-80
2024/01/15 12:38:45;;;;;;;10.70;4.80;;;4.40;91.60;;;;;;4852483;29;20072;-79
2024/01/15 12:41:13;;;;;;;9.30;3.80;;;3.30;91.50;;;;;;4851000;29;20060;-79
2024/01/15 12:43:43;;;;;;;8.32;3.13;;;3.80;91.70;;;;;;4867603;29;20083;-80